Time;durP1;ratioP1;P1;durP2;ratioP2;P2;SDS_P1;SDS_P2;PMS_P1;PMS_P2;Temp;Humidity;BMP_temperature;BMP_pressure;BME280_temperature;BME280_humidity;BME280_pressure;Samples;Min_cycle;Max_cycle;Signal;HPM_P1;HPM_P2
2021/10/10 00:02:20;;;;;;;5.57;5.18;;;14.40;65.90;;;;;;5028316;28;20050;-86
2021/10/10 00:04:46;;;;;;;5.57;5.18;;;14.30;66.00;;;;;;5030775;28;20484;-85
2021/10/10 00:07:12;;;;;;;5.50;5.20;;;14.30;66.10;;;;;;5033853;28;20040;-86
2021/10/10 00:09:39;;;;;;;6.18;5.68;;;14.30;66.20;;;;;;5029577;28;20384;-85
2021/10/10 00:12:06;;;;;;;5.25;4.88;;;14.30;66.20;;;;;;5032381;28;20404;-85
2021/10/10 00:14:32;;;;;;;5.35;5.05;;;14.30;66.20;;;;;;5008531;28;20045;-85
2021/10/10 00:16:58;;;;;;;5.82;5.32;;;14.30;66.20;;;;;;5007707;28;20049;-86
2021/10/10 00:19:24;;;;;;;5.53;5.22;;;14.20;66.10;;;;;;5033264;28;20923;-86
2021/10/10 00:21:50;;;;;;;5.13;4.72;;;14.20;66.10;;;;;;5032200;28;20045;-85
2021/10/10 00:24:16;;;;;;;4.72;4.53;;;14.20;66.20;;;;;;5027947;28;20392;-85
2021/10/10 00:26:43;;;;;;;5.30;4.90;;;14.20;66.30;;;;;;5024655;28;20034;-86
2021/10/10 00:29:09;;;;;;;5.90;5.50;;;14.10;66.30;;;;;;5009793;28;20411;-85
2021/10/10 00:31:35;;;;;;;5.30;5.00;;;14.10;66.40;;;;;;5016748;28;20029;-85
2021/10/10 00:34:01;;;;;;;5.32;4.68;;;14.10;66.50;;;;;;5016694;28;20037;-85
2021/10/10 00:36:27;;;;;;;5.22;4.82;;;14.10;66.50;;;;;;5029621;28;20495;-86
2021/10/10 00:38:53;;;;;;;6.00;5.50;;;14.10;66.50;;;;;;5031627;28;20037;-86
2021/10/10 00:41:19;;;;;;;5.05;4.85;;;14.00;66.50;;;;;;4999831;28;20041;-85
2021/10/10 00:43:45;;;;;;;4.95;4.65;;;14.00;66.60;;;;;;5033458;28;20476;-86
2021/10/10 00:46:14;;;;;;;5.38;5.07;;;14.00;66.60;;;;;;5017706;28;20082;-86
2021/10/10 00:48:40;;;;;;;5.13;4.72;;;14.00;66.70;;;;;;5033483;28;20029;-86
2021/10/10 00:51:06;;;;;;;6.07;5.57;;;14.00;67.50;;;;;;5033451;28;20583;-86
2021/10/10 00:53:33;;;;;;;6.43;5.93;;;13.90;66.60;;;;;;5031282;28;20036;-86
2021/10/10 00:55:59;;;;;;;5.10;4.80;;;13.90;66.70;;;;;;5015859;28;20041;-86
2021/10/10 00:58:26;;;;;;;5.60;5.20;;;13.90;66.80;;;;;;5032832;28;20369;-86
2021/10/10 01:00:53;;;;;;;4.72;4.43;;;13.80;66.80;;;;;;5015500;28;20041;-85
2021/10/10 01:03:20;;;;;;;4.65;4.30;;;13.80;66.80;;;;;;5020839;28;20045;-86
2021/10/10 01:05:46;;;;;;;5.20;4.80;;;13.80;66.80;;;;;;5013879;28;20042;-85
2021/10/10 01:08:13;;;;;;;5.28;4.97;;;13.80;66.90;;;;;;5008402;28;20033;-85
2021/10/10 01:10:49;;;;;;;4.80;4.60;;;13.70;66.90;;;;;;5027650;28;20481;-85
2021/10/10 01:13:18;;;;;;;5.15;4.85;;;13.70;67.00;;;;;;4994618;28;20033;-85
2021/10/10 01:15:44;;;;;;;5.53;5.10;;;13.70;67.10;;;;;;5032403;28;20030;-85
2021/10/10 01:18:10;;;;;;;4.95;4.65;;;13.70;67.10;;;;;;5032755;28;20033;-85
2021/10/10 01:20:46;;;;;;;5.05;4.75;;;13.60;67.10;;;;;;5032145;28;20037;-85
2021/10/10 01:23:12;;;;;;;4.95;4.65;;;13.60;67.20;;;;;;5029114;28;20029;-86
2021/10/10 01:25:39;;;;;;;6.15;5.55;;;13.60;67.20;;;;;;5020947;28;20052;-85
2021/10/10 01:28:05;;;;;;;4.85;4.63;;;13.60;67.20;;;;;;5015833;28;20021;-86
2021/10/10 01:30:31;;;;;;;4.80;4.55;;;13.60;67.20;;;;;;5014120;28;20029;-86
2021/10/10 01:32:59;;;;;;;5.30;4.55;;;13.60;67.20;;;;;;5031832;28;20033;-88
2021/10/10 01:35:25;;;;;;;5.10;4.80;;;13.60;67.30;;;;;;5015609;28;20128;-85
2021/10/10 01:37:51;;;;;;;5.97;5.57;;;13.50;67.30;;;;;;5027913;28;20042;-85
2021/10/10 01:40:17;;;;;;;4.50;4.15;;;13.50;67.30;;;;;;5014986;28;20029;-85
2021/10/10 01:42:43;;;;;;;5.05;4.75;;;13.50;67.40;;;;;;5032194;28;20475;-86
2021/10/10 01:45:16;;;;;;;5.72;5.28;;;13.50;67.50;;;;;;5031690;28;20052;-85
2021/10/10 01:47:43;;;;;;;5.47;5.07;;;13.40;67.50;;;;;;4996290;28;20038;-86
2021/10/10 01:50:09;;;;;;;5.85;5.45;;;13.40;67.50;;;;;;5024233;28;20460;-85
2021/10/10 01:52:36;;;;;;;5.05;4.72;;;13.40;67.50;;;;;;5019821;28;20029;-85
2021/10/10 01:55:03;;;;;;;5.22;4.90;;;13.30;67.60;;;;;;5015007;28;20022;-85
2021/10/10 01:57:29;;;;;;;5.85;5.25;;;13.30;67.60;;;;;;5015285;28;20033;-86
2021/10/10 01:59:55;;;;;;;5.38;5.07;;;13.30;67.60;;;;;;5028057;28;20045;-85
2021/10/10 02:02:22;;;;;;;5.07;4.80;;;13.30;67.70;;;;;;4994686;28;20373;-85
2021/10/10 02:04:48;;;;;;;4.97;4.68;;;13.20;67.70;;;;;;5056726;28;20037;-85
2021/10/10 02:07:14;;;;;;;5.13;4.82;;;13.20;67.80;;;;;;5022898;28;20408;-85
2021/10/10 02:09:41;;;;;;;5.28;4.97;;;13.10;67.70;;;;;;5028201;28;20052;-85
2021/10/10 02:12:07;;;;;;;4.30;4.10;;;13.10;67.80;;;;;;5034533;28;20030;-85
2021/10/10 02:14:37;;;;;;;5.43;4.75;;;13.10;67.90;;;;;;5006146;28;20021;-85
2021/10/10 02:17:03;;;;;;;6.35;4.90;;;13.10;67.90;;;;;;5028247;28;20040;-85
2021/10/10 02:19:29;;;;;;;5.05;4.72;;;13.00;67.90;;;;;;5028896;28;20040;-85
2021/10/10 02:21:56;;;;;;;6.28;5.78;;;13.00;67.90;;;;;;5026834;28;20029;-86
2021/10/10 02:24:22;;;;;;;4.95;4.65;;;13.00;68.00;;;;;;5026205;28;20030;-85
2021/10/10 02:26:48;;;;;;;4.93;4.63;;;13.00;68.00;;;;;;5028067;28;20041;-85
2021/10/10 02:29:14;;;;;;;4.97;4.65;;;12.90;68.00;;;;;;5027652;28;20036;-85
2021/10/10 02:31:43;;;;;;;4.80;4.40;;;12.90;68.00;;;;;;5026819;28;20384;-85
2021/10/10 02:34:10;;;;;;;5.00;4.70;;;12.90;68.10;;;;;;5026640;28;20037;-85
2021/10/10 02:36:37;;;;;;;6.28;5.78;;;12.90;68.20;;;;;;5022897;28;20487;-85
2021/10/10 02:39:03;;;;;;;4.63;4.38;;;12.80;68.10;;;;;;5014281;28;20026;-86
2021/10/10 02:41:29;;;;;;;5.13;4.82;;;12.80;68.10;;;;;;5030923;28;20036;-86
2021/10/10 02:43:55;;;;;;;5.47;4.82;;;12.90;68.10;;;;;;5014452;28;20040;-85
2021/10/10 02:46:21;;;;;;;5.22;4.93;;;12.80;68.10;;;;;;5028875;28;20412;-85
2021/10/10 02:48:48;;;;;;;5.82;5.03;;;12.90;68.10;;;;;;5019303;28;20034;-85
2021/10/10 02:51:14;;;;;;;5.40;4.90;;;12.80;68.10;;;;;;5009851;28;20037;-86
2021/10/10 02:53:40;;;;;;;5.22;4.82;;;12.80;68.10;;;;;;5027014;28;20388;-85
2021/10/10 02:56:06;;;;;;;5.65;5.25;;;12.80;68.10;;;;;;5011011;28;20040;-85
2021/10/10 02:58:33;;;;;;;4.75;4.47;;;12.80;68.10;;;;;;5014650;28;20044;-85
2021/10/10 03:00:59;;;;;;;4.82;4.63;;;12.80;68.10;;;;;;5013564;28;20526;-85
2021/10/10 03:03:25;;;;;;;5.50;5.10;;;12.80;68.20;;;;;;5013754;28;20052;-86
2021/10/10 03:05:51;;;;;;;4.90;4.60;;;12.80;68.20;;;;;;5023332;28;20419;-85
2021/10/10 03:08:17;;;;;;;4.43;4.22;;;12.80;68.30;;;;;;5027863;28;20030;-84
2021/10/10 03:10:43;;;;;;;5.88;4.80;;;12.70;68.20;;;;;;5029160;28;20045;-85
2021/10/10 03:13:10;;;;;;;6.22;4.72;;;12.70;68.30;;;;;;5030653;28;20464;-85
2021/10/10 03:15:37;;;;;;;5.35;5.05;;;12.70;68.40;;;;;;5009230;28;20046;-86
2021/10/10 03:18:03;;;;;;;5.13;4.82;;;12.70;68.40;;;;;;5014221;28;20025;-84
2021/10/10 03:20:29;;;;;;;4.10;3.90;;;12.70;68.40;;;;;;5006022;28;20042;-85
2021/10/10 03:22:56;;;;;;;4.85;4.55;;;12.70;68.40;;;;;;4997521;28;20037;-86
2021/10/10 03:25:22;;;;;;;5.25;4.95;;;12.60;68.50;;;;;;5029146;28;20045;-86
2021/10/10 03:27:48;;;;;;;5.53;4.85;;;12.60;68.50;;;;;;5017207;28;20042;-85
2021/10/10 03:30:14;;;;;;;6.10;5.28;;;12.60;68.60;;;;;;5031380;28;20037;-86
2021/10/10 03:32:40;;;;;;;4.63;4.43;;;12.50;68.50;;;;;;5029808;28;20036;-86
2021/10/10 03:35:07;;;;;;;4.75;4.45;;;12.50;68.60;;;;;;5013651;28;20476;-86
2021/10/10 03:37:35;;;;;;;5.10;4.70;;;12.50;68.60;;;;;;5008944;28;20464;-87
2021/10/10 03:40:06;;;;;;;5.28;4.80;;;12.50;68.70;;;;;;5013336;28;20029;-86
2021/10/10 03:42:32;;;;;;;4.38;4.03;;;12.50;68.70;;;;;;5030847;28;20044;-86
2021/10/10 03:44:58;;;;;;;5.35;4.50;;;12.50;68.70;;;;;;5005134;28;20034;-86
2021/10/10 03:47:24;;;;;;;4.57;4.32;;;12.50;68.70;;;;;;5026035;28;20044;-86
2021/10/10 03:49:50;;;;;;;4.07;3.88;;;12.50;68.70;;;;;;5029776;28;20033;-84
2021/10/10 03:52:16;;;;;;;5.30;4.93;;;12.50;68.70;;;;;;5009407;28;20030;-84
2021/10/10 03:57:27;;;;;;;5.45;4.70;;;12.50;68.80;;;;;;5026002;28;20401;-85
2021/10/10 04:00:05;;;;;;;20.73;4.80;;;12.50;68.80;;;;;;5030033;28;20045;-85
2021/10/10 04:02:31;;;;;;;4.82;4.43;;;12.50;68.80;;;;;;5012787;28;20049;-85
2021/10/10 04:04:59;;;;;;;4.43;4.13;;;12.40;68.80;;;;;;5013420;28;20530;-85
2021/10/10 04:07:25;;;;;;;5.15;4.85;;;12.50;68.90;;;;;;5030958;28;20053;-85
2021/10/10 04:09:51;;;;;;;4.95;4.57;;;12.50;69.00;;;;;;4996700;28;20040;-85
2021/10/10 04:12:17;;;;;;;5.72;5.18;;;12.50;69.00;;;;;;5031117;28;20022;-85
2021/10/10 04:14:43;;;;;;;5.25;4.95;;;12.40;69.70;;;;;;5030872;28;20037;-85
2021/10/10 04:17:09;;;;;;;5.70;5.00;;;12.40;69.10;;;;;;5012618;28;20480;-85
2021/10/10 04:19:36;;;;;;;4.63;4.32;;;12.40;69.10;;;;;;5013196;28;20037;-85
2021/10/10 04:22:02;;;;;;;5.43;5.03;;;12.40;69.10;;;;;;5013206;28;20037;-85
2021/10/10 04:24:28;;;;;;;5.72;4.80;;;12.40;69.10;;;;;;5013392;28;20033;-85
2021/10/10 04:26:54;;;;;;;4.80;4.50;;;12.40;69.20;;;;;;5029778;28;20045;-85
2021/10/10 04:29:20;;;;;;;5.68;5.18;;;12.40;69.20;;;;;;5016815;28;20025;-85
2021/10/10 04:31:46;;;;;;;5.10;4.68;;;12.40;69.30;;;;;;5031992;28;20041;-85
2021/10/10 04:34:12;;;;;;;6.25;4.72;;;12.40;69.30;;;;;;5033237;28;20045;-85
2021/10/10 04:36:39;;;;;;;6.05;5.50;;;12.40;69.30;;;;;;5025436;28;20034;-85
2021/10/10 04:39:05;;;;;;;5.60;4.65;;;12.40;69.30;;;;;;5031493;28;20034;-85
2021/10/10 04:41:31;;;;;;;4.97;4.63;;;12.30;69.40;;;;;;5029835;28;20025;-86
2021/10/10 04:43:57;;;;;;;4.90;4.55;;;12.30;69.40;;;;;;5028168;28;20030;-85
2021/10/10 04:46:23;;;;;;;6.00;5.25;;;12.30;69.50;;;;;;5002585;28;20041;-85
2021/10/10 04:48:49;;;;;;;4.10;3.90;;;12.30;69.50;;;;;;5029174;28;20034;-85
2021/10/10 04:51:16;;;;;;;13.13;5.32;;;12.20;69.50;;;;;;5023587;28;20048;-86
2021/10/10 04:53:42;;;;;;;4.80;4.50;;;12.20;69.60;;;;;;5016179;28;20033;-85
2021/10/10 04:56:08;;;;;;;4.60;4.30;;;12.20;69.70;;;;;;4999446;28;20404;-85
2021/10/10 04:58:34;;;;;;;5.00;4.70;;;12.20;69.70;;;;;;4999671;28;20046;-85
2021/10/10 05:01:00;;;;;;;4.45;4.25;;;12.10;69.70;;;;;;5011588;28;20045;-85
2021/10/10 05:03:26;;;;;;;4.68;4.28;;;12.20;69.90;;;;;;5007962;28;20050;-84
2021/10/10 05:05:52;;;;;;;4.82;4.43;;;12.10;69.80;;;;;;5016105;28;20539;-85
2021/10/10 05:08:18;;;;;;;4.53;4.18;;;12.10;69.80;;;;;;5030880;28;20033;-86
2021/10/10 05:10:44;;;;;;;7.47;5.55;;;12.10;69.80;;;;;;5025725;28;20042;-85
2021/10/10 05:13:10;;;;;;;5.13;4.82;;;12.10;69.90;;;;;;5024283;28;20059;-85
2021/10/10 05:15:36;;;;;;;5.28;4.90;;;12.10;70.00;;;;;;5029077;28;20042;-85
2021/10/10 05:18:03;;;;;;;16.80;5.20;;;12.00;70.00;;;;;;5031477;28;20044;-85
2021/10/10 05:20:29;;;;;;;5.10;4.68;;;12.00;70.10;;;;;;5015684;28;20029;-86
2021/10/10 05:22:55;;;;;;;4.07;3.88;;;12.00;70.10;;;;;;5015551;28;20048;-86
2021/10/10 05:25:21;;;;;;;4.68;4.38;;;12.00;70.10;;;;;;5032290;28;20388;-85
2021/10/10 05:27:47;;;;;;;4.22;3.92;;;12.00;70.10;;;;;;5015968;28;20403;-85
2021/10/10 05:30:13;;;;;;;5.88;4.85;;;12.00;70.10;;;;;;5032879;28;20033;-85
2021/10/10 05:32:40;;;;;;;5.82;4.82;;;12.00;70.10;;;;;;5031785;28;20060;-85
2021/10/10 05:35:06;;;;;;;4.82;4.53;;;11.90;70.20;;;;;;5031142;28;20025;-85
2021/10/10 05:37:32;;;;;;;6.28;5.32;;;11.90;70.40;;;;;;5023590;28;20484;-86
2021/10/10 05:39:58;;;;;;;5.35;4.95;;;11.80;70.50;;;;;;5015124;28;20026;-81
2021/10/10 05:42:24;;;;;;;5.18;4.88;;;11.80;70.60;;;;;;5029158;28;20381;-86
2021/10/10 05:44:50;;;;;;;4.00;3.80;;;11.70;70.50;;;;;;5029173;28;20033;-85
2021/10/10 05:47:16;;;;;;;4.03;3.83;;;11.70;70.60;;;;;;5031144;28;20411;-85
2021/10/10 05:49:42;;;;;;;5.03;4.63;;;11.70;70.60;;;;;;5029510;28;20049;-85
2021/10/10 05:52:09;;;;;;;5.13;4.82;;;11.70;70.70;;;;;;5029206;28;20037;-85
2021/10/10 05:54:37;;;;;;;6.55;4.97;;;11.60;70.70;;;;;;5012630;28;20042;-90
2021/10/10 05:57:09;;;;;;;4.50;4.20;;;11.60;70.80;;;;;;5027582;28;20033;-84
2021/10/10 05:59:37;;;;;;;4.15;3.88;;;11.50;70.90;;;;;;5023731;28;20034;-83
2021/10/10 06:02:03;;;;;;;5.43;5.00;;;11.50;71.60;;;;;;5029254;28;20046;-84
2021/10/10 06:04:29;;;;;;;4.88;4.57;;;11.50;70.90;;;;;;5013615;28;20390;-81
2021/10/10 06:06:56;;;;;;;4.72;4.43;;;11.50;71.00;;;;;;5013734;28;20049;-80
2021/10/10 06:09:22;;;;;;;5.13;4.72;;;11.40;70.80;;;;;;5028774;28;20029;-83
2021/10/10 06:11:48;;;;;;;4.75;4.55;;;11.40;70.90;;;;;;5027466;28;20522;-82
2021/10/10 06:14:14;;;;;;;4.50;4.20;;;11.40;71.00;;;;;;5025806;28;20129;-80
2021/10/10 06:16:40;;;;;;;4.65;4.35;;;11.40;71.10;;;;;;4997462;28;20037;-79
2021/10/10 06:19:06;;;;;;;4.22;4.03;;;11.30;71.20;;;;;;5013976;28;20041;-83
2021/10/10 06:21:32;;;;;;;4.47;4.18;;;11.30;71.30;;;;;;5045863;28;20037;-81
2021/10/10 06:23:58;;;;;;;5.10;3.88;;;11.30;71.40;;;;;;5031667;28;20025;-83
2021/10/10 06:26:24;;;;;;;3.78;3.58;;;11.20;71.30;;;;;;5014837;28;20049;-84
2021/10/10 06:28:51;;;;;;;6.03;4.38;;;11.30;71.40;;;;;;5014842;28;20032;-83
2021/10/10 06:31:17;;;;;;;4.47;4.18;;;11.30;71.30;;;;;;5033615;28;20480;-84
2021/10/10 06:33:43;;;;;;;4.85;4.45;;;11.30;71.30;;;;;;5047824;28;20036;-83
2021/10/10 06:36:09;;;;;;;4.80;4.43;;;11.30;71.30;;;;;;5014678;28;20025;-81
2021/10/10 06:38:35;;;;;;;4.57;4.20;;;11.40;71.30;;;;;;4997560;28;20057;-80
2021/10/10 06:41:01;;;;;;;3.80;3.60;;;11.40;71.30;;;;;;5032152;28;20510;-83
2021/10/10 06:43:27;;;;;;;4.03;3.83;;;11.40;71.30;;;;;;5063272;28;20044;-85
2021/10/10 06:45:53;;;;;;;3.88;3.67;;;11.30;71.20;;;;;;5036356;28;20041;-84
2021/10/10 06:48:20;;;;;;;4.57;4.38;;;11.40;71.30;;;;;;5032224;28;20037;-86
2021/10/10 06:50:46;;;;;;;4.40;4.20;;;11.40;71.30;;;;;;5029907;28;20025;-89
2021/10/10 06:53:12;;;;;;;4.57;4.28;;;11.40;71.30;;;;;;5030679;28;20438;-88
2021/10/10 06:55:38;;;;;;;4.55;4.22;;;11.40;71.40;;;;;;5030903;28;20033;-87
2021/10/10 06:58:04;;;;;;;3.97;3.78;;;11.40;71.30;;;;;;5014473;28;20380;-87
2021/10/10 07:00:30;;;;;;;3.80;3.60;;;11.40;71.30;;;;;;5013391;28;20041;-89
2021/10/10 07:02:58;;;;;;;4.22;4.03;;;11.40;71.30;;;;;;5047288;28;20033;-89
2021/10/10 07:05:24;;;;;;;4.65;4.35;;;11.40;71.50;;;;;;5047030;28;20529;-86
2021/10/10 07:07:50;;;;;;;5.13;4.82;;;11.40;71.50;;;;;;5031747;28;20044;-89
2021/10/10 07:10:16;;;;;;;4.45;4.25;;;11.40;71.60;;;;;;5063068;28;20384;-86
2021/10/10 07:12:42;;;;;;;5.10;4.65;;;11.40;71.70;;;;;;5031718;28;20040;-87
2021/10/10 07:15:10;;;;;;;4.05;3.85;;;11.40;71.70;;;;;;5018497;28;20407;-88
2021/10/10 07:17:37;;;;;;;4.57;4.28;;;11.40;72.40;;;;;;5036391;28;20037;-84
2021/10/10 07:20:16;;;;;;;5.05;4.75;;;11.40;71.60;;;;;;5038483;28;20030;-83
2021/10/10 07:22:56;;;;;;;4.95;4.60;;;11.40;71.60;;;;;;5033349;28;20029;-88
2021/10/10 07:25:22;;;;;;;4.82;4.55;;;11.40;71.70;;;;;;5041336;28;20021;-89
2021/10/10 07:27:48;;;;;;;4.70;4.40;;;11.50;71.70;;;;;;5031311;28;20037;-84
2021/10/10 07:30:15;;;;;;;4.43;4.20;;;11.40;71.70;;;;;;5030327;28;20384;-88
2021/10/10 07:32:41;;;;;;;4.25;3.95;;;11.50;71.80;;;;;;5030455;28;20408;-90
2021/10/10 07:35:08;;;;;;;5.25;4.85;;;11.40;71.80;;;;;;5021637;28;20029;-88
2021/10/10 07:37:35;;;;;;;3.72;3.53;;;11.50;71.70;;;;;;5047838;28;20072;-87
2021/10/10 07:40:02;;;;;;;5.45;4.68;;;11.50;71.70;;;;;;5030652;28;20045;-84
2021/10/10 07:42:29;;;;;;;6.65;5.05;;;11.60;71.60;;;;;;5014835;28;20036;-83
2021/10/10 07:45:04;;;;;;;4.68;4.43;;;11.60;71.50;;;;;;5030029;28;20034;-82
2021/10/10 07:50:09;;;;;;;4.72;4.43;;;11.80;71.40;;;;;;5025894;28;20660;-83
2021/10/10 07:52:36;;;;;;;5.40;4.95;;;11.80;71.30;;;;;;5031349;28;20487;-81
2021/10/10 07:55:04;;;;;;;4.43;4.18;;;11.90;71.30;;;;;;5011669;28;20034;-81
2021/10/10 07:57:31;;;;;;;5.03;4.72;;;11.90;71.30;;;;;;5018976;28;20036;-84
2021/10/10 07:59:57;;;;;;;4.80;4.53;;;12.00;71.40;;;;;;5059986;28;20041;-86
2021/10/10 08:02:26;;;;;;;5.47;5.03;;;12.00;71.50;;;;;;5020903;28;20052;-85
2021/10/10 08:04:53;;;;;;;4.90;4.60;;;12.10;71.50;;;;;;5060586;28;20040;-86
2021/10/10 08:07:19;;;;;;;4.85;4.47;;;12.10;71.40;;;;;;5017666;28;20504;-84
2021/10/10 08:09:45;;;;;;;4.47;4.28;;;12.20;71.40;;;;;;5038852;28;20037;-84
2021/10/10 08:12:11;;;;;;;5.70;5.30;;;12.20;71.40;;;;;;5020563;28;20523;-82
2021/10/10 08:14:38;;;;;;;4.70;4.43;;;12.30;71.40;;;;;;5039972;28;20037;-82
2021/10/10 08:17:04;;;;;;;5.20;4.85;;;12.30;71.40;;;;;;5069875;28;20048;-82
2021/10/10 08:19:30;;;;;;;5.45;5.07;;;12.40;71.60;;;;;;5029566;28;20030;-85
2021/10/10 08:21:56;;;;;;;5.28;4.80;;;12.40;71.70;;;;;;5064868;28;20045;-84
2021/10/10 08:24:23;;;;;;;5.85;5.45;;;12.50;71.90;;;;;;5035928;28;20172;-85
2021/10/10 08:26:49;;;;;;;5.00;4.68;;;12.50;71.80;;;;;;5064783;28;20041;-83
2021/10/10 08:29:16;;;;;;;4.85;4.55;;;12.60;71.90;;;;;;5067756;28;20456;-83
2021/10/10 08:31:42;;;;;;;5.72;5.20;;;12.70;71.90;;;;;;5022450;28;20416;-84
2021/10/10 08:34:08;;;;;;;5.78;5.28;;;12.70;71.80;;;;;;5047139;28;20484;-84
2021/10/10 08:36:34;;;;;;;5.00;4.70;;;12.80;71.80;;;;;;5054567;28;20021;-85
2021/10/10 08:39:01;;;;;;;4.38;4.18;;;12.90;71.70;;;;;;5057459;28;20068;-85
2021/10/10 08:41:31;;;;;;;4.97;4.68;;;13.00;71.50;;;;;;5039286;28;20029;-86
2021/10/10 08:43:58;;;;;;;5.38;5.05;;;13.10;71.50;;;;;;5059982;28;20045;-85
2021/10/10 08:46:24;;;;;;;6.10;5.28;;;13.30;71.30;;;;;;5020490;28;20041;-85
2021/10/10 08:48:51;;;;;;;4.78;4.55;;;13.40;71.10;;;;;;5048806;28;20033;-84
2021/10/10 08:51:19;;;;;;;5.68;5.28;;;13.60;70.90;;;;;;5016476;28;20026;-84
2021/10/10 08:53:45;;;;;;;5.57;5.28;;;13.80;70.70;;;;;;5048873;28;20036;-84
2021/10/10 08:56:13;;;;;;;5.90;5.38;;;13.90;70.50;;;;;;5025595;28;20044;-85
2021/10/10 08:58:42;;;;;;;5.45;5.13;;;14.00;70.40;;;;;;5042989;28;20404;-86
2021/10/10 09:01:28;;;;;;;5.55;5.13;;;14.10;70.30;;;;;;5048846;28;20048;-84
2021/10/10 09:03:55;;;;;;;5.25;4.95;;;14.20;70.30;;;;;;5003712;28;20044;-85
2021/10/10 09:06:21;;;;;;;4.90;4.60;;;14.20;70.30;;;;;;5035322;28;20029;-85
2021/10/10 09:08:47;;;;;;;7.32;5.82;;;14.30;70.40;;;;;;5032403;28;20492;-84
2021/10/10 09:11:13;;;;;;;5.50;5.20;;;14.30;70.50;;;;;;5030360;28;20041;-81
2021/10/10 09:13:40;;;;;;;6.00;5.65;;;14.40;70.50;;;;;;5060819;28;20468;-82
2021/10/10 09:16:08;;;;;;;9.43;5.45;;;14.40;70.40;;;;;;5005684;28;20045;-81
2021/10/10 09:18:42;;;;;;;6.00;5.60;;;14.50;70.40;;;;;;5030901;28;20049;-82
2021/10/10 09:21:20;;;;;;;4.95;4.75;;;14.60;70.30;;;;;;5028985;28;20036;-81
2021/10/10 09:23:47;;;;;;;6.25;5.47;;;14.80;70.20;;;;;;4997781;28;20056;-80
2021/10/10 09:26:14;;;;;;;5.35;5.05;;;14.90;70.00;;;;;;5039654;28;20029;-79
2021/10/10 09:28:40;;;;;;;5.57;5.28;;;15.00;69.80;;;;;;5058870;28;20059;-79
2021/10/10 09:31:06;;;;;;;6.60;6.10;;;15.20;69.70;;;;;;5021360;28;20040;-81
2021/10/10 09:33:47;;;;;;;5.68;5.15;;;15.20;69.50;;;;;;5014727;28;20049;-82
2021/10/10 09:36:22;;;;;;;6.28;5.78;;;15.30;69.50;;;;;;5059235;28;20476;-83
2021/10/10 09:39:00;;;;;;;9.68;6.43;;;15.30;69.40;;;;;;5031048;28;20212;-82
2021/10/10 09:44:16;;;;;;;5.93;5.63;;;15.40;69.40;;;;;;5023479;28;20036;-77
2021/10/10 09:46:44;;;;;;;5.30;5.00;;;15.50;69.30;;;;;;5028037;28;20518;-76
2021/10/10 09:49:30;;;;;;;6.05;5.60;;;15.60;69.10;;;;;;5024499;28;20038;-83
2021/10/10 09:52:08;;;;;;;6.47;5.90;;;15.70;69.00;;;;;;5027417;28;20383;-86
2021/10/10 09:54:56;;;;;;;6.13;5.75;;;15.80;68.90;;;;;;5028133;28;20026;-83
2021/10/10 09:57:27;;;;;;;5.90;5.50;;;15.80;68.80;;;;;;5029846;28;20025;-82
2021/10/10 09:59:53;;;;;;;5.35;5.05;;;15.80;68.80;;;;;;5054360;28;20041;-80
2021/10/10 10:02:42;;;;;;;5.75;5.45;;;15.80;68.80;;;;;;5028255;28;20037;-85
2021/10/10 10:05:08;;;;;;;5.80;5.50;;;15.80;68.80;;;;;;4998207;28;20037;-83
2021/10/10 10:07:34;;;;;;;5.88;5.35;;;15.80;68.80;;;;;;5028301;28;20060;-81
2021/10/10 10:10:00;;;;;;;6.53;5.95;;;15.90;68.90;;;;;;5027674;28;20037;-80
2021/10/10 10:12:27;;;;;;;5.25;4.93;;;15.90;68.80;;;;;;5013211;28;20033;-80
2021/10/10 10:14:56;;;;;;;6.05;5.63;;;16.00;68.80;;;;;;5028437;28;20021;-81
2021/10/10 10:17:23;;;;;;;6.78;6.25;;;16.00;68.70;;;;;;5024471;28;20511;-81
2021/10/10 10:19:49;;;;;;;6.10;5.65;;;16.10;68.60;;;;;;5061705;28;20480;-83
2021/10/10 10:22:16;;;;;;;5.88;5.35;;;16.20;68.40;;;;;;5029504;28;20507;-82
2021/10/10 10:24:45;;;;;;;6.05;5.68;;;16.30;68.30;;;;;;5037730;28;20037;-81
2021/10/10 10:27:12;;;;;;;7.05;6.35;;;16.40;68.20;;;;;;5022629;28;20036;-81
2021/10/10 10:29:39;;;;;;;6.60;6.07;;;16.50;68.00;;;;;;5025007;28;20475;-81
2021/10/10 10:32:06;;;;;;;8.20;5.90;;;16.50;68.00;;;;;;4996471;28;20543;-85
2021/10/10 10:34:35;;;;;;;11.60;5.90;;;16.60;67.80;;;;;;4996770;28;20049;-81
2021/10/10 10:37:09;;;;;;;6.22;5.80;;;16.60;67.70;;;;;;4996376;28;20049;-82
2021/10/10 10:39:45;;;;;;;5.70;5.40;;;16.70;67.70;;;;;;5028370;28;20048;-83
2021/10/10 10:42:12;;;;;;;6.43;6.03;;;16.70;67.70;;;;;;5030538;28;20033;-82
2021/10/10 10:44:42;;;;;;;5.75;5.45;;;16.80;67.70;;;;;;5023378;28;20025;-83
2021/10/10 10:47:15;;;;;;;7.30;6.57;;;16.80;67.60;;;;;;5021541;28;20049;-84
2021/10/10 10:49:54;;;;;;;6.25;5.95;;;16.80;67.50;;;;;;5054970;28;20053;-82
2021/10/10 10:52:30;;;;;;;6.70;6.40;;;16.80;67.50;;;;;;5024784;28;20022;-86
2021/10/10 10:55:16;;;;;;;7.20;6.80;;;16.90;67.50;;;;;;5022559;28;20038;-83
2021/10/10 10:57:52;;;;;;;6.85;6.25;;;16.90;67.30;;;;;;5026793;28;20034;-83
2021/10/10 11:00:40;;;;;;;7.40;7.00;;;17.00;67.20;;;;;;5025169;28;20033;-84
2021/10/10 11:03:11;;;;;;;6.88;6.47;;;17.00;67.10;;;;;;5027520;28;20476;-84
2021/10/10 11:05:40;;;;;;;6.97;6.53;;;17.10;67.00;;;;;;5029684;28;20033;-84
2021/10/10 11:08:07;;;;;;;6.47;6.15;;;17.10;67.00;;;;;;5056743;28;20045;-82
2021/10/10 11:10:35;;;;;;;7.10;6.32;;;17.10;66.90;;;;;;5056869;28;20040;-83
2021/10/10 11:13:07;;;;;;;7.03;6.55;;;17.20;66.90;;;;;;5025797;28;20033;-86
2021/10/10 11:16:03;;;;;;;6.07;5.78;;;17.30;66.80;;;;;;5030105;28;20408;-85
2021/10/10 11:18:29;;;;;;;7.88;7.07;;;17.40;66.70;;;;;;5056386;28;20030;-83
2021/10/10 11:20:59;;;;;;;6.35;5.90;;;17.40;66.60;;;;;;5024403;28;20519;-83
2021/10/10 11:23:25;;;;;;;5.65;5.25;;;17.50;66.50;;;;;;5002221;28;20053;-84
2021/10/10 11:25:52;;;;;;;6.03;5.63;;;17.50;66.30;;;;;;5024726;28;20033;-84
2021/10/10 11:28:46;;;;;;;7.63;6.97;;;17.50;66.30;;;;;;5041622;28;20040;-84
2021/10/10 11:31:16;;;;;;;6.07;5.78;;;17.60;66.20;;;;;;5037418;28;20040;-84
2021/10/10 11:33:47;;;;;;;6.60;6.20;;;17.60;66.10;;;;;;5059597;28;20034;-83
2021/10/10 11:36:14;;;;;;;7.65;7.05;;;17.70;65.90;;;;;;5022718;28;20128;-84
2021/10/10 11:38:52;;;;;;;7.60;7.00;;;17.80;65.80;;;;;;5013545;28;20041;-85
2021/10/10 11:41:19;;;;;;;7.05;6.75;;;17.90;65.70;;;;;;5018722;28;20033;-86
2021/10/10 11:44:04;;;;;;;6.90;6.50;;;18.00;65.60;;;;;;5037731;28;20033;-86
2021/10/10 11:46:54;;;;;;;8.65;7.90;;;18.00;65.50;;;;;;5025567;28;20041;-86
2021/10/10 11:49:20;;;;;;;8.63;8.05;;;18.10;65.40;;;;;;5041957;28;20037;-86
2021/10/10 11:51:49;;;;;;;8.10;6.82;;;18.10;65.20;;;;;;5015721;28;20041;-86
2021/10/10 11:54:43;;;;;;;7.47;7.07;;;18.10;65.00;;;;;;5028586;28;20036;-86
2021/10/10 11:57:10;;;;;;;6.57;6.28;;;18.10;64.90;;;;;;5015140;28;20045;-85
2021/10/10 11:59:57;;;;;;;6.43;6.13;;;18.20;64.90;;;;;;5009244;28;20029;-85
2021/10/10 12:02:24;;;;;;;6.35;6.05;;;18.30;64.70;;;;;;5060318;28;20036;-85
2021/10/10 12:05:09;;;;;;;6.50;6.10;;;18.40;64.40;;;;;;5030075;28;20036;-85
2021/10/10 12:07:36;;;;;;;6.63;6.20;;;18.40;64.40;;;;;;5056737;28;20037;-85
2021/10/10 12:10:04;;;;;;;7.22;6.75;;;18.40;64.40;;;;;;4996411;28;20041;-87
2021/10/10 12:12:30;;;;;;;6.25;5.95;;;18.50;64.30;;;;;;5024612;28;20044;-84
2021/10/10 12:14:57;;;;;;;6.53;6.20;;;18.50;64.10;;;;;;5025440;28;20029;-86
2021/10/10 12:17:36;;;;;;;6.82;6.43;;;18.60;64.10;;;;;;5026394;28;20044;-86
2021/10/10 12:20:17;;;;;;;7.13;6.72;;;18.60;63.90;;;;;;5012951;28;20041;-84
2021/10/10 12:23:07;;;;;;;6.78;6.47;;;18.60;63.80;;;;;;5022937;28;20028;-85
2021/10/10 12:25:41;;;;;;;6.88;6.57;;;18.70;63.70;;;;;;5026428;28;20024;-84
2021/10/10 12:28:11;;;;;;;7.32;6.93;;;18.70;63.30;;;;;;5012285;28;20037;-85
2021/10/10 12:30:40;;;;;;;7.78;7.38;;;18.80;63.20;;;;;;5024234;28;20436;-85
2021/10/10 12:33:34;;;;;;;7.68;7.25;;;18.80;63.00;;;;;;5025388;28;20025;-85
2021/10/10 12:36:11;;;;;;;8.52;7.93;;;18.90;62.90;;;;;;5050257;28;20037;-84
2021/10/10 12:38:38;;;;;;;12.07;11.43;;;18.90;62.70;;;;;;5021192;28;20034;-85
2021/10/10 12:41:19;;;;;;;7.65;7.25;;;19.00;62.40;;;;;;5042604;28;20045;-85
2021/10/10 12:43:53;;;;;;;7.80;7.40;;;19.00;62.10;;;;;;5021959;28;21210;-84
2021/10/10 12:46:20;;;;;;;7.13;6.75;;;19.10;62.10;;;;;;5041910;28;20030;-84
2021/10/10 12:48:56;;;;;;;8.07;7.68;;;19.20;61.90;;;;;;5029846;28;20038;-85
2021/10/10 12:51:23;;;;;;;7.63;7.22;;;19.30;61.70;;;;;;5030686;28;20377;-85
2021/10/10 12:53:49;;;;;;;7.53;7.13;;;19.30;61.50;;;;;;4996261;28;20052;-85
2021/10/10 12:56:19;;;;;;;7.82;7.43;;;19.30;61.40;;;;;;5025390;28;20037;-85
2021/10/10 12:58:52;;;;;;;18.15;17.27;;;19.30;61.30;;;;;;5031606;28;20056;-85
2021/10/10 13:01:23;;;;;;;7.68;7.28;;;19.20;61.20;;;;;;5039651;28;20041;-85